sensor_id;sensor_type;location;lat;lon;timestamp;temperature;humidity
51739;DHT22;37815;52.692;6.226;2023-07-20T00:00:36;20.20;89.40
51739;DHT22;37815;52.692;6.226;2023-07-20T00:05:37;20.20;89.50
51739;DHT22;37815;52.692;6.226;2023-07-20T00:10:39;20.10;89.50
51739;DHT22;37815;52.692;6.226;2023-07-20T00:15:40;20.10;89.60
51739;DHT22;37815;52.692;6.226;2023-07-20T00:20:41;20.10;89.60
51739;DHT22;37815;52.692;6.226;2023-07-20T00:25:41;20.10;89.60
51739;DHT22;37815;52.692;6.226;2023-07-20T00:30:42;20.10;89.70
51739;DHT22;37815;52.692;6.226;2023-07-20T00:35:43;20.00;89.70
51739;DHT22;37815;52.692;6.226;2023-07-20T00:40:43;20.00;89.70
51739;DHT22;37815;52.692;6.226;2023-07-20T00:45:44;20.00;89.80
51739;DHT22;37815;52.692;6.226;2023-07-20T00:50:46;20.00;89.80
51739;DHT22;37815;52.692;6.226;2023-07-20T00:55:47;20.00;89.90
51739;DHT22;37815;52.692;6.226;2023-07-20T01:00:47;20.00;89.80
51739;DHT22;37815;52.692;6.226;2023-07-20T01:05:54;19.90;89.90
51739;DHT22;37815;52.692;6.226;2023-07-20T01:11:09;19.90;90.00
51739;DHT22;37815;52.692;6.226;2023-07-20T01:16:10;19.90;90.00
51739;DHT22;37815;52.692;6.226;2023-07-20T01:21:16;19.90;90.00
51739;DHT22;37815;52.692;6.226;2023-07-20T01:31:52;19.80;90.00
51739;DHT22;37815;52.692;6.226;2023-07-20T01:36:55;19.80;90.00
51739;DHT22;37815;52.692;6.226;2023-07-20T01:41:56;19.80;90.00
51739;DHT22;37815;52.692;6.226;2023-07-20T01:46:57;19.80;90.00
51739;DHT22;37815;52.692;6.226;2023-07-20T01:51:58;19.80;90.10
51739;DHT22;37815;52.692;6.226;2023-07-20T01:56:59;19.80;90.30
51739;DHT22;37815;52.692;6.226;2023-07-20T02:02:00;19.70;90.10
51739;DHT22;37815;52.692;6.226;2023-07-20T02:07:00;19.70;90.10
51739;DHT22;37815;52.692;6.226;2023-07-20T02:12:01;19.60;90.10
51739;DHT22;37815;52.692;6.226;2023-07-20T02:17:02;19.70;90.10
51739;DHT22;37815;52.692;6.226;2023-07-20T02:22:03;19.60;90.10
51739;DHT22;37815;52.692;6.226;2023-07-20T02:27:04;19.60;90.10
51739;DHT22;37815;52.692;6.226;2023-07-20T02:32:05;19.60;90.10
51739;DHT22;37815;52.692;6.226;2023-07-20T02:37:06;19.50;90.10
51739;DHT22;37815;52.692;6.226;2023-07-20T02:42:06;19.50;90.10
51739;DHT22;37815;52.692;6.226;2023-07-20T02:47:07;19.50;90.10
51739;DHT22;37815;52.692;6.226;2023-07-20T02:52:08;19.50;90.10
51739;DHT22;37815;52.692;6.226;2023-07-20T02:57:08;19.50;90.10
51739;DHT22;37815;52.692;6.226;2023-07-20T03:02:09;19.40;90.40
51739;DHT22;37815;52.692;6.226;2023-07-20T03:07:10;19.40;90.10
51739;DHT22;37815;52.692;6.226;2023-07-20T03:12:10;19.40;90.10
51739;DHT22;37815;52.692;6.226;2023-07-20T03:17:11;19.40;90.10
51739;DHT22;37815;52.692;6.226;2023-07-20T03:22:11;19.30;90.10
51739;DHT22;37815;52.692;6.226;2023-07-20T03:27:12;19.30;90.10
51739;DHT22;37815;52.692;6.226;2023-07-20T03:32:13;19.30;90.10
51739;DHT22;37815;52.692;6.226;2023-07-20T03:37:13;19.30;90.10
51739;DHT22;37815;52.692;6.226;2023-07-20T03:42:14;19.30;90.10
51739;DHT22;37815;52.692;6.226;2023-07-20T03:47:15;19.20;90.00
51739;DHT22;37815;52.692;6.226;2023-07-20T03:52:15;19.20;90.00
51739;DHT22;37815;52.692;6.226;2023-07-20T03:57:16;19.20;90.00
51739;DHT22;37815;52.692;6.226;2023-07-20T04:02:17;19.20;90.00
51739;DHT22;37815;52.692;6.226;2023-07-20T04:07:17;19.10;90.00
51739;DHT22;37815;52.692;6.226;2023-07-20T04:12:18;19.10;90.00
51739;DHT22;37815;52.692;6.226;2023-07-20T04:17:19;19.10;89.90
51739;DHT22;37815;52.692;6.226;2023-07-20T04:22:19;19.10;89.90
51739;DHT22;37815;52.692;6.226;2023-07-20T04:27:20;19.10;89.80
51739;DHT22;37815;52.692;6.226;2023-07-20T04:32:21;19.00;89.70
51739;DHT22;37815;52.692;6.226;2023-07-20T04:37:21;19.00;89.70
51739;DHT22;37815;52.692;6.226;2023-07-20T04:42:22;19.00;89.70
51739;DHT22;37815;52.692;6.226;2023-07-20T04:47:23;19.00;89.70
51739;DHT22;37815;52.692;6.226;2023-07-20T04:52:23;19.00;89.70
51739;DHT22;37815;52.692;6.226;2023-07-20T04:57:24;19.00;89.70
51739;DHT22;37815;52.692;6.226;2023-07-20T05:02:25;19.00;89.60
51739;DHT22;37815;52.692;6.226;2023-07-20T05:07:26;18.90;89.50
51739;DHT22;37815;52.692;6.226;2023-07-20T05:12:26;18.90;89.50
51739;DHT22;37815;52.692;6.226;2023-07-20T05:17:27;18.90;89.60
51739;DHT22;37815;52.692;6.226;2023-07-20T05:22:27;18.90;89.50
51739;DHT22;37815;52.692;6.226;2023-07-20T05:27:28;18.90;89.50
51739;DHT22;37815;52.692;6.226;2023-07-20T05:32:29;18.90;89.50
51739;DHT22;37815;52.692;6.226;2023-07-20T05:37:29;18.90;89.40
51739;DHT22;37815;52.692;6.226;2023-07-20T05:42:30;19.00;89.50
51739;DHT22;37815;52.692;6.226;2023-07-20T05:47:31;18.90;89.40
51739;DHT22;37815;52.692;6.226;2023-07-20T05:52:32;18.90;89.40
51739;DHT22;37815;52.692;6.226;2023-07-20T05:57:33;18.90;89.40
51739;DHT22;37815;52.692;6.226;2023-07-20T06:02:34;18.80;89.40
51739;DHT22;37815;52.692;6.226;2023-07-20T06:07:35;18.90;89.40
51739;DHT22;37815;52.692;6.226;2023-07-20T06:12:36;18.80;89.40
51739;DHT22;37815;52.692;6.226;2023-07-20T06:17:36;18.90;89.50
51739;DHT22;37815;52.692;6.226;2023-07-20T06:22:37;18.90;89.50
51739;DHT22;37815;52.692;6.226;2023-07-20T06:27:38;18.90;89.40
51739;DHT22;37815;52.692;6.226;2023-07-20T06:32:38;18.90;89.40
51739;DHT22;37815;52.692;6.226;2023-07-20T06:37:39;18.90;89.40
51739;DHT22;37815;52.692;6.226;2023-07-20T06:42:41;18.90;89.30
51739;DHT22;37815;52.692;6.226;2023-07-20T06:47:42;19.00;89.30
51739;DHT22;37815;52.692;6.226;2023-07-20T06:52:42;19.00;89.30
51739;DHT22;37815;52.692;6.226;2023-07-20T06:57:43;19.00;89.20
51739;DHT22;37815;52.692;6.226;2023-07-20T07:02:44;19.00;89.30
51739;DHT22;37815;52.692;6.226;2023-07-20T07:07:44;19.00;89.20
51739;DHT22;37815;52.692;6.226;2023-07-20T07:12:45;19.00;89.20
51739;DHT22;37815;52.692;6.226;2023-07-20T07:17:45;19.00;89.10
51739;DHT22;37815;52.692;6.226;2023-07-20T07:22:47;19.00;89.20
51739;DHT22;37815;52.692;6.226;2023-07-20T07:27:48;19.10;89.30
51739;DHT22;37815;52.692;6.226;2023-07-20T07:32:48;19.00;89.20
51739;DHT22;37815;52.692;6.226;2023-07-20T07:37:49;19.10;89.10
51739;DHT22;37815;52.692;6.226;2023-07-20T07:42:50;19.20;89.10
51739;DHT22;37815;52.692;6.226;2023-07-20T07:47:50;19.20;89.00
51739;DHT22;37815;52.692;6.226;2023-07-20T07:52:51;19.20;89.00
51739;DHT22;37815;52.692;6.226;2023-07-20T07:57:52;19.30;88.90
51739;DHT22;37815;52.692;6.226;2023-07-20T08:02:53;19.30;88.90
51739;DHT22;37815;52.692;6.226;2023-07-20T08:07:53;19.30;88.90
51739;DHT22;37815;52.692;6.226;2023-07-20T08:12:54;19.30;89.00
51739;DHT22;37815;52.692;6.226;2023-07-20T08:17:55;19.30;89.00
51739;DHT22;37815;52.692;6.226;2023-07-20T08:22:55;19.30;88.80
51739;DHT22;37815;52.692;6.226;2023-07-20T08:27:56;19.40;88.80
51739;DHT22;37815;52.692;6.226;2023-07-20T08:32:57;19.40;88.70
51739;DHT22;37815;52.692;6.226;2023-07-20T08:37:57;19.40;88.70
51739;DHT22;37815;52.692;6.226;2023-07-20T08:42:59;19.40;88.60
51739;DHT22;37815;52.692;6.226;2023-07-20T08:48:03;19.50;88.60
51739;DHT22;37815;52.692;6.226;2023-07-20T08:53:06;19.50;88.50
51739;DHT22;37815;52.692;6.226;2023-07-20T08:58:08;19.60;88.50
51739;DHT22;37815;52.692;6.226;2023-07-20T09:03:11;19.60;88.40
51739;DHT22;37815;52.692;6.226;2023-07-20T09:08:12;19.60;88.40
51739;DHT22;37815;52.692;6.226;2023-07-20T09:13:16;19.60;88.40
51739;DHT22;37815;52.692;6.226;2023-07-20T09:18:43;19.50;88.30
51739;DHT22;37815;52.692;6.226;2023-07-20T09:23:44;19.60;88.20
51739;DHT22;37815;52.692;6.226;2023-07-20T09:28:49;19.60;88.40
51739;DHT22;37815;52.692;6.226;2023-07-20T09:33:52;19.60;88.20
51739;DHT22;37815;52.692;6.226;2023-07-20T09:38:54;19.60;88.10
51739;DHT22;37815;52.692;6.226;2023-07-20T09:43:56;19.60;88.00
51739;DHT22;37815;52.692;6.226;2023-07-20T09:48:57;19.70;87.90
51739;DHT22;37815;52.692;6.226;2023-07-20T09:53:57;19.80;87.70
51739;DHT22;37815;52.692;6.226;2023-07-20T09:58:58;19.80;87.50
51739;DHT22;37815;52.692;6.226;2023-07-20T10:04:02;19.80;87.40
51739;DHT22;37815;52.692;6.226;2023-07-20T10:09:03;19.80;87.40
51739;DHT22;37815;52.692;6.226;2023-07-20T10:14:07;19.80;87.50
51739;DHT22;37815;52.692;6.226;2023-07-20T10:19:17;19.80;87.70
51739;DHT22;37815;52.692;6.226;2023-07-20T10:24:25;19.70;87.70
51739;DHT22;37815;52.692;6.226;2023-07-20T10:29:27;19.70;87.80
51739;DHT22;37815;52.692;6.226;2023-07-20T10:34:29;19.80;87.80
51739;DHT22;37815;52.692;6.226;2023-07-20T10:39:32;19.80;87.80
51739;DHT22;37815;52.692;6.226;2023-07-20T10:44:34;19.80;87.70
51739;DHT22;37815;52.692;6.226;2023-07-20T10:49:59;19.90;87.70
51739;DHT22;37815;52.692;6.226;2023-07-20T10:55:10;19.90;87.50
51739;DHT22;37815;52.692;6.226;2023-07-20T11:00:13;20.00;87.40
51739;DHT22;37815;52.692;6.226;2023-07-20T11:05:38;20.00;87.20
51739;DHT22;37815;52.692;6.226;2023-07-20T11:10:39;20.20;86.80
51739;DHT22;37815;52.692;6.226;2023-07-20T11:20:59;20.40;86.20
51739;DHT22;37815;52.692;6.226;2023-07-20T11:25:59;20.20;86.20
51739;DHT22;37815;52.692;6.226;2023-07-20T11:31:00;20.30;86.80
51739;DHT22;37815;52.692;6.226;2023-07-20T11:36:01;20.30;86.60
51739;DHT22;37815;52.692;6.226;2023-07-20T11:41:05;20.20;86.70
51739;DHT22;37815;52.692;6.226;2023-07-20T11:46:06;20.20;86.90
51739;DHT22;37815;52.692;6.226;2023-07-20T11:51:13;20.20;87.00
51739;DHT22;37815;52.692;6.226;2023-07-20T11:56:14;20.20;87.00
51739;DHT22;37815;52.692;6.226;2023-07-20T12:01:17;20.20;87.10
51739;DHT22;37815;52.692;6.226;2023-07-20T12:06:18;20.30;87.10
51739;DHT22;37815;52.692;6.226;2023-07-20T12:11:35;20.30;87.00
51739;DHT22;37815;52.692;6.226;2023-07-20T12:16:37;20.40;86.70
51739;DHT22;37815;52.692;6.226;2023-07-20T12:21:41;20.50;86.50
51739;DHT22;37815;52.692;6.226;2023-07-20T12:26:44;20.60;86.30
51739;DHT22;37815;52.692;6.226;2023-07-20T12:31:46;20.60;86.20
51739;DHT22;37815;52.692;6.226;2023-07-20T12:36:47;20.70;86.10
51739;DHT22;37815;52.692;6.226;2023-07-20T12:41:47;20.70;85.80
51739;DHT22;37815;52.692;6.226;2023-07-20T12:46:48;20.90;85.70
51739;DHT22;37815;52.692;6.226;2023-07-20T12:51:48;21.00;85.50
51739;DHT22;37815;52.692;6.226;2023-07-20T12:56:49;21.00;85.40
51739;DHT22;37815;52.692;6.226;2023-07-20T13:01:50;21.10;85.20
51739;DHT22;37815;52.692;6.226;2023-07-20T13:06:50;21.10;85.10
51739;DHT22;37815;52.692;6.226;2023-07-20T13:11:51;21.20;85.10
51739;DHT22;37815;52.692;6.226;2023-07-20T13:16:53;21.20;85.10
51739;DHT22;37815;52.692;6.226;2023-07-20T13:21:54;21.20;85.20
51739;DHT22;37815;52.692;6.226;2023-07-20T13:26:54;21.30;85.20
51739;DHT22;37815;52.692;6.226;2023-07-20T13:31:55;21.30;85.20
51739;DHT22;37815;52.692;6.226;2023-07-20T13:36:56;21.40;85.00
51739;DHT22;37815;52.692;6.226;2023-07-20T13:41:57;21.50;84.90
51739;DHT22;37815;52.692;6.226;2023-07-20T13:46:58;21.60;84.90
51739;DHT22;37815;52.692;6.226;2023-07-20T13:51:59;21.70;84.70
51739;DHT22;37815;52.692;6.226;2023-07-20T13:57:00;21.80;84.40
51739;DHT22;37815;52.692;6.226;2023-07-20T14:02:00;21.90;84.50
51739;DHT22;37815;52.692;6.226;2023-07-20T14:07:01;22.00;84.20
51739;DHT22;37815;52.692;6.226;2023-07-20T14:12:02;22.10;84.30
51739;DHT22;37815;52.692;6.226;2023-07-20T14:17:02;22.10;83.90
51739;DHT22;37815;52.692;6.226;2023-07-20T14:22:03;22.20;83.70
51739;DHT22;37815;52.692;6.226;2023-07-20T14:27:04;22.30;83.70
51739;DHT22;37815;52.692;6.226;2023-07-20T14:32:05;22.40;83.40
51739;DHT22;37815;52.692;6.226;2023-07-20T14:37:07;22.40;83.10
51739;DHT22;37815;52.692;6.226;2023-07-20T14:42:08;22.60;82.90
51739;DHT22;37815;52.692;6.226;2023-07-20T14:47:09;22.70;82.80
51739;DHT22;37815;52.692;6.226;2023-07-20T14:52:09;22.80;82.50
51739;DHT22;37815;52.692;6.226;2023-07-20T14:57:10;23.00;82.30
51739;DHT22;37815;52.692;6.226;2023-07-20T15:02:14;23.10;82.10
51739;DHT22;37815;52.692;6.226;2023-07-20T15:07:20;23.20;81.90
51739;DHT22;37815;52.692;6.226;2023-07-20T15:12:22;23.10;81.90
51739;DHT22;37815;52.692;6.226;2023-07-20T15:17:23;23.00;80.80
51739;DHT22;37815;52.692;6.226;2023-07-20T15:22:23;22.90;79.80
51739;DHT22;37815;52.692;6.226;2023-07-20T15:27:24;22.80;79.20
51739;DHT22;37815;52.692;6.226;2023-07-20T15:32:25;22.90;78.20
51739;DHT22;37815;52.692;6.226;2023-07-20T15:37:26;23.00;77.80
51739;DHT22;37815;52.692;6.226;2023-07-20T15:42:26;22.90;77.30
51739;DHT22;37815;52.692;6.226;2023-07-20T15:47:27;22.90;77.10
51739;DHT22;37815;52.692;6.226;2023-07-20T15:52:28;23.20;76.90
51739;DHT22;37815;52.692;6.226;2023-07-20T15:57:28;23.50;76.30
51739;DHT22;37815;52.692;6.226;2023-07-20T16:02:29;23.20;76.30
51739;DHT22;37815;52.692;6.226;2023-07-20T16:07:29;23.00;75.90
51739;DHT22;37815;52.692;6.226;2023-07-20T16:12:31;22.70;76.70
51739;DHT22;37815;52.692;6.226;2023-07-20T16:17:32;22.50;77.30
51739;DHT22;37815;52.692;6.226;2023-07-20T16:22:32;22.40;77.60
51739;DHT22;37815;52.692;6.226;2023-07-20T16:27:33;22.10;77.40
51739;DHT22;37815;52.692;6.226;2023-07-20T16:32:34;21.90;77.90
51739;DHT22;37815;52.692;6.226;2023-07-20T16:37:35;21.90;77.80
51739;DHT22;37815;52.692;6.226;2023-07-20T16:42:35;21.70;77.40
51739;DHT22;37815;52.692;6.226;2023-07-20T16:47:36;21.60;77.40
51739;DHT22;37815;52.692;6.226;2023-07-20T16:52:37;21.50;77.40
51739;DHT22;37815;52.692;6.226;2023-07-20T16:57:38;21.60;77.40
51739;DHT22;37815;52.692;6.226;2023-07-20T17:02:38;21.60;76.90
51739;DHT22;37815;52.692;6.226;2023-07-20T17:07:39;21.60;76.50
51739;DHT22;37815;52.692;6.226;2023-07-20T17:12:40;21.30;77.00
51739;DHT22;37815;52.692;6.226;2023-07-20T17:17:41;21.20;77.20
51739;DHT22;37815;52.692;6.226;2023-07-20T17:22:42;21.10;76.40
51739;DHT22;37815;52.692;6.226;2023-07-20T17:27:42;21.10;76.90
51739;DHT22;37815;52.692;6.226;2023-07-20T17:32:43;21.10;76.60
51739;DHT22;37815;52.692;6.226;2023-07-20T17:37:43;21.00;76.70
51739;DHT22;37815;52.692;6.226;2023-07-20T17:42:44;21.00;77.00
51739;DHT22;37815;52.692;6.226;2023-07-20T17:47:45;20.80;76.90
51739;DHT22;37815;52.692;6.226;2023-07-20T17:52:45;20.80;77.00
51739;DHT22;37815;52.692;6.226;2023-07-20T17:57:46;20.80;76.90
51739;DHT22;37815;52.692;6.226;2023-07-20T18:02:48;20.80;77.00
51739;DHT22;37815;52.692;6.226;2023-07-20T18:07:49;20.80;77.30
51739;DHT22;37815;52.692;6.226;2023-07-20T18:12:49;21.00;77.40
51739;DHT22;37815;52.692;6.226;2023-07-20T18:17:50;21.10;77.40
51739;DHT22;37815;52.692;6.226;2023-07-20T18:22:50;21.20;77.50
51739;DHT22;37815;52.692;6.226;2023-07-20T18:27:51;21.30;77.50
51739;DHT22;37815;52.692;6.226;2023-07-20T18:32:52;21.40;77.80
51739;DHT22;37815;52.692;6.226;2023-07-20T18:37:52;21.40;78.00
51739;DHT22;37815;52.692;6.226;2023-07-20T18:42:53;21.40;78.20
51739;DHT22;37815;52.692;6.226;2023-07-20T18:47:54;21.40;78.40
51739;DHT22;37815;52.692;6.226;2023-07-20T18:52:55;21.40;78.50
51739;DHT22;37815;52.692;6.226;2023-07-20T18:57:57;21.40;78.70
51739;DHT22;37815;52.692;6.226;2023-07-20T19:02:59;21.50;78.90
51739;DHT22;37815;52.692;6.226;2023-07-20T19:07:59;21.40;79.00
51739;DHT22;37815;52.692;6.226;2023-07-20T19:13:01;21.40;79.20
51739;DHT22;37815;52.692;6.226;2023-07-20T19:18:02;21.40;79.30
51739;DHT22;37815;52.692;6.226;2023-07-20T19:23:03;21.40;79.50
51739;DHT22;37815;52.692;6.226;2023-07-20T19:28:04;21.40;79.60
51739;DHT22;37815;52.692;6.226;2023-07-20T19:33:04;21.40;79.80
51739;DHT22;37815;52.692;6.226;2023-07-20T19:38:05;21.30;79.80
51739;DHT22;37815;52.692;6.226;2023-07-20T19:43:06;21.30;80.00
51739;DHT22;37815;52.692;6.226;2023-07-20T19:48:09;21.20;80.00
51739;DHT22;37815;52.692;6.226;2023-07-20T19:53:09;21.20;80.20
51739;DHT22;37815;52.692;6.226;2023-07-20T19:58:10;21.20;80.20
51739;DHT22;37815;52.692;6.226;2023-07-20T20:03:11;21.20;80.30
51739;DHT22;37815;52.692;6.226;2023-07-20T20:08:13;21.20;80.40
51739;DHT22;37815;52.692;6.226;2023-07-20T20:13:14;21.10;80.50
51739;DHT22;37815;52.692;6.226;2023-07-20T20:18:15;21.10;80.60
51739;DHT22;37815;52.692;6.226;2023-07-20T20:23:18;21.10;80.60
51739;DHT22;37815;52.692;6.226;2023-07-20T20:28:19;21.10;80.70
51739;DHT22;37815;52.692;6.226;2023-07-20T20:33:20;21.00;80.80
51739;DHT22;37815;52.692;6.226;2023-07-20T20:38:22;21.00;80.90
51739;DHT22;37815;52.692;6.226;2023-07-20T20:43:22;21.00;80.90
51739;DHT22;37815;52.692;6.226;2023-07-20T20:48:23;21.00;81.00
51739;DHT22;37815;52.692;6.226;2023-07-20T20:53:26;20.90;81.00
51739;DHT22;37815;52.692;6.226;2023-07-20T20:58:27;20.90;81.10
51739;DHT22;37815;52.692;6.226;2023-07-20T21:03:28;20.80;81.00
51739;DHT22;37815;52.692;6.226;2023-07-20T21:08:29;20.80;81.10
51739;DHT22;37815;52.692;6.226;2023-07-20T21:13:30;20.80;81.20
51739;DHT22;37815;52.692;6.226;2023-07-20T21:18:30;20.80;81.30
51739;DHT22;37815;52.692;6.226;2023-07-20T21:23:31;20.70;81.20
51739;DHT22;37815;52.692;6.226;2023-07-20T21:28:32;20.70;81.20
51739;DHT22;37815;52.692;6.226;2023-07-20T21:33:32;20.70;81.30
51739;DHT22;37815;52.692;6.226;2023-07-20T21:38:33;20.60;81.30
51739;DHT22;37815;52.692;6.226;2023-07-20T21:43:37;20.60;81.30
51739;DHT22;37815;52.692;6.226;2023-07-20T21:48:38;20.60;81.30
51739;DHT22;37815;52.692;6.226;2023-07-20T21:53:41;20.50;81.30
51739;DHT22;37815;52.692;6.226;2023-07-20T21:58:41;20.50;81.30
51739;DHT22;37815;52.692;6.226;2023-07-20T22:03:42;20.50;81.20
51739;DHT22;37815;52.692;6.226;2023-07-20T22:08:42;20.40;81.20
51739;DHT22;37815;52.692;6.226;2023-07-20T22:13:43;20.40;81.20
51739;DHT22;37815;52.692;6.226;2023-07-20T22:18:45;20.40;81.30
51739;DHT22;37815;52.692;6.226;2023-07-20T22:23:49;20.30;81.20
51739;DHT22;37815;52.692;6.226;2023-07-20T22:28:50;20.30;81.30
51739;DHT22;37815;52.692;6.226;2023-07-20T22:33:51;20.30;81.30
51739;DHT22;37815;52.692;6.226;2023-07-20T22:38:53;20.20;81.30
51739;DHT22;37815;52.692;6.226;2023-07-20T22:43:54;20.20;81.30
51739;DHT22;37815;52.692;6.226;2023-07-20T22:48:55;20.20;81.30
51739;DHT22;37815;52.692;6.226;2023-07-20T22:53:55;20.20;81.40
51739;DHT22;37815;52.692;6.226;2023-07-20T22:58:56;20.10;81.30
51739;DHT22;37815;52.692;6.226;2023-07-20T23:03:56;20.10;81.30
51739;DHT22;37815;52.692;6.226;2023-07-20T23:09:00;20.10;81.40
51739;DHT22;37815;52.692;6.226;2023-07-20T23:14:00;20.00;81.40
51739;DHT22;37815;52.692;6.226;2023-07-20T23:19:01;20.00;81.40
51739;DHT22;37815;52.692;6.226;2023-07-20T23:24:02;20.00;81.40
51739;DHT22;37815;52.692;6.226;2023-07-20T23:29:02;20.00;81.50
51739;DHT22;37815;52.692;6.226;2023-07-20T23:34:03;20.00;81.50
51739;DHT22;37815;52.692;6.226;2023-07-20T23:39:04;19.90;81.50
51739;DHT22;37815;52.692;6.226;2023-07-20T23:44:05;19.90;81.60
51739;DHT22;37815;52.692;6.226;2023-07-20T23:49:06;19.90;81.70
51739;DHT22;37815;52.692;6.226;2023-07-20T23:54:09;19.90;81.70
51739;DHT22;37815;52.692;6.226;2023-07-20T23:59:09;19.80;81.70
